Time;durP1;ratioP1;P1;durP2;ratioP2;P2;SDS_P1;SDS_P2;PMS_P1;PMS_P2;Temp;Humidity;BMP_temperature;BMP_pressure;BME280_temperature;BME280_humidity;BME280_pressure;Samples;Min_cycle;Max_cycle;Signal;HPM_P1;HPM_P2
2021/12/10 00:00:14;;;;;;;39.17;13.52;;;1.50;99.90;;;;;;5072617;28;20044;-74
2021/12/10 00:02:45;;;;;;;26.90;9.25;;;1.50;99.90;;;;;;5072585;28;20028;-74
2021/12/10 00:05:13;;;;;;;28.33;9.93;;;1.40;99.90;;;;;;5072123;28;20057;-74
2021/12/10 00:07:41;;;;;;;61.47;22.92;;;1.30;99.90;;;;;;5072113;28;20106;-74
2021/12/10 00:10:10;;;;;;;47.03;19.02;;;1.40;99.90;;;;;;5054414;28;20045;-74
2021/12/10 00:12:43;;;;;;;24.15;9.05;;;1.40;99.90;;;;;;5072558;28;20432;-73
2021/12/10 00:15:10;;;;;;;22.40;8.95;;;1.50;99.90;;;;;;5072313;28;20098;-74
2021/12/10 00:17:36;;;;;;;39.35;15.77;;;1.30;99.90;;;;;;5072206;28;20562;-74
2021/12/10 00:20:07;;;;;;;9.63;4.68;;;1.40;99.90;;;;;;5054659;28;20029;-74
2021/12/10 00:22:42;;;;;;;21.20;8.00;;;1.40;99.90;;;;;;5072358;28;20090;-74
2021/12/10 00:25:17;;;;;;;12.05;5.15;;;1.40;99.90;;;;;;5071272;28;20152;-76
2021/12/10 00:27:44;;;;;;;16.30;5.60;;;1.50;99.90;;;;;;5053764;28;20094;-73
2021/12/10 00:30:18;;;;;;;24.42;10.00;;;1.50;99.90;;;;;;5071312;28;20063;-74
2021/12/10 00:33:11;;;;;;;12.18;6.25;;;1.50;99.90;;;;;;5055166;28;20036;-75
2021/12/10 00:35:38;;;;;;;14.45;5.78;;;1.60;99.90;;;;;;5075618;28;20039;-74
2021/12/10 00:38:04;;;;;;;8.40;3.35;;;1.60;99.90;;;;;;5075467;28;20041;-74
2021/12/10 00:40:30;;;;;;;7.30;3.13;;;1.60;99.90;;;;;;5075289;28;20020;-74
2021/12/10 00:42:56;;;;;;;9.38;3.42;;;1.80;99.90;;;;;;5057594;28;20044;-75
2021/12/10 00:45:23;;;;;;;32.55;12.98;;;1.90;99.90;;;;;;5057638;28;20089;-74
2021/12/10 00:47:51;;;;;;;6.93;2.30;;;1.90;99.90;;;;;;5075716;28;20555;-74
2021/12/10 00:50:24;;;;;;;7.90;2.92;;;1.90;99.90;;;;;;5057579;28;20100;-74
2021/12/10 00:52:53;;;;;;;23.63;8.48;;;1.90;99.90;;;;;;5075261;28;20044;-74
2021/12/10 00:55:19;;;;;;;10.43;3.33;;;1.80;99.90;;;;;;5076504;28;20074;-73
2021/12/10 00:57:45;;;;;;;26.17;9.70;;;1.80;99.90;;;;;;5095754;28;20036;-74
2021/12/10 01:00:21;;;;;;;17.92;6.60;;;1.90;99.90;;;;;;5095808;28;20487;-75
2021/12/10 01:02:48;;;;;;;55.78;19.25;;;1.80;99.90;;;;;;5095723;28;20483;-75
2021/12/10 01:05:15;;;;;;;38.50;13.90;;;1.80;99.90;;;;;;5095372;28;20143;-75
2021/12/10 01:07:42;;;;;;;11.25;4.85;;;1.90;99.90;;;;;;5095569;28;20036;-74
2021/12/10 01:10:16;;;;;;;30.88;10.00;;;1.80;99.90;;;;;;5095644;28;20448;-76
2021/12/10 01:12:46;;;;;;;12.77;4.80;;;1.80;99.90;;;;;;5094148;28;20032;-75
2021/12/10 01:23:48;;;;;;;12.50;4.70;;;1.40;99.90;;;;;;5095211;28;20398;-74
2021/12/10 01:28:46;;;;;;;12.15;5.90;;;1.40;99.90;;;;;;5095358;28;20410;-74
2021/12/10 01:31:13;;;;;;;16.63;6.65;;;1.40;99.90;;;;;;5095224;28;20504;-74
2021/12/10 01:33:41;;;;;;;9.13;4.07;;;1.50;99.90;;;;;;5095138;28;20070;-75
2021/12/10 01:36:08;;;;;;;15.18;6.45;;;1.60;99.90;;;;;;5094849;28;20499;-75
2021/12/10 01:38:36;;;;;;;12.90;5.70;;;1.60;99.90;;;;;;5076662;28;20032;-74
2021/12/10 01:41:06;;;;;;;13.63;5.80;;;1.50;99.90;;;;;;5094870;28;20048;-74
2021/12/10 01:43:35;;;;;;;15.38;7.55;;;1.40;99.90;;;;;;5076961;28;20035;-74
2021/12/10 01:46:10;;;;;;;15.00;6.85;;;1.30;99.90;;;;;;5094757;28;20546;-75
2021/12/10 01:48:43;;;;;;;14.40;7.22;;;1.40;99.90;;;;;;5094616;28;20587;-74
2021/12/10 01:51:13;;;;;;;19.02;10.15;;;1.20;99.90;;;;;;5075945;28;20579;-74
2021/12/10 01:53:41;;;;;;;14.57;8.00;;;0.90;99.90;;;;;;5093042;28;20517;-73
2021/12/10 01:56:17;;;;;;;12.02;5.75;;;0.80;99.90;;;;;;5094507;28;20403;-74
2021/12/10 01:58:44;;;;;;;10.25;4.63;;;0.70;99.90;;;;;;5076371;28;20390;-73
2021/12/10 02:01:32;;;;;;;11.05;5.50;;;0.70;99.90;;;;;;5094108;28;20044;-74
2021/12/10 02:04:00;;;;;;;14.88;5.68;;;0.60;99.90;;;;;;5094170;28;20160;-73
2021/12/10 02:06:26;;;;;;;15.07;7.03;;;0.60;99.90;;;;;;5094251;28;20068;-73
2021/12/10 02:08:53;;;;;;;12.35;6.00;;;0.70;99.90;;;;;;5076078;28;20033;-74
2021/12/10 02:11:19;;;;;;;10.13;4.75;;;0.60;99.90;;;;;;5094199;28;20418;-73
2021/12/10 02:13:46;;;;;;;9.13;4.65;;;0.70;99.90;;;;;;5094216;28;20107;-73
2021/12/10 02:16:11;;;;;;;8.82;4.72;;;0.60;99.90;;;;;;5075976;28;20040;-73
2021/12/10 02:18:37;;;;;;;12.93;4.90;;;0.60;99.90;;;;;;5094089;28;20039;-74
2021/12/10 02:21:03;;;;;;;10.43;4.13;;;0.60;99.90;;;;;;5093681;28;20050;-73
2021/12/10 02:23:38;;;;;;;8.88;4.93;;;0.60;99.90;;;;;;5093713;28;20036;-74
2021/12/10 02:26:07;;;;;;;7.00;3.53;;;0.60;99.90;;;;;;5093707;28;20082;-75
2021/12/10 02:28:34;;;;;;;7.05;3.95;;;0.60;99.90;;;;;;5093822;28;20032;-73
2021/12/10 02:31:01;;;;;;;8.80;4.20;;;0.60;99.90;;;;;;5075455;28;20047;-74
2021/12/10 02:33:27;;;;;;;5.25;2.45;;;0.60;99.90;;;;;;5093675;28;20043;-74
2021/12/10 02:35:53;;;;;;;5.45;2.58;;;0.60;99.90;;;;;;5093873;28;20470;-74
2021/12/10 02:38:20;;;;;;;3.65;2.20;;;0.70;99.90;;;;;;5093898;28;20502;-75
2021/12/10 02:40:48;;;;;;;4.22;2.60;;;0.70;99.90;;;;;;5075588;28;20039;-75
2021/12/10 02:43:18;;;;;;;2.78;2.03;;;0.80;99.90;;;;;;5075299;28;20036;-75
2021/12/10 02:45:48;;;;;;;2.15;1.70;;;0.80;99.90;;;;;;5093031;28;20052;-74
2021/12/10 02:48:14;;;;;;;5.28;3.30;;;0.70;99.90;;;;;;5092930;28;20043;-74
2021/12/10 02:50:40;;;;;;;6.32;4.60;;;0.70;99.90;;;;;;5093659;28;20039;-73
2021/12/10 02:53:08;;;;;;;5.88;4.30;;;0.70;99.90;;;;;;5075642;28;20028;-73
2021/12/10 02:55:35;;;;;;;8.45;5.47;;;0.60;99.90;;;;;;5093259;28;20039;-73
2021/12/10 02:58:06;;;;;;;8.60;4.88;;;0.60;99.90;;;;;;5075419;28;20048;-73
2021/12/10 03:00:38;;;;;;;5.80;3.92;;;0.50;99.90;;;;;;5075254;28;20036;-73
2021/12/10 03:03:04;;;;;;;7.35;4.63;;;0.50;99.90;;;;;;5074983;28;20027;-73
2021/12/10 03:05:30;;;;;;;6.88;4.20;;;0.50;99.90;;;;;;5074870;28;20048;-73
2021/12/10 03:07:56;;;;;;;6.70;4.60;;;0.40;99.90;;;;;;5093367;28;20086;-74
2021/12/10 03:10:28;;;;;;;7.00;5.00;;;0.40;99.90;;;;;;5093354;28;20067;-74
2021/12/10 03:12:54;;;;;;;9.23;5.32;;;0.40;99.90;;;;;;5093332;28;20376;-75
2021/12/10 03:15:22;;;;;;;8.50;6.38;;;0.30;99.90;;;;;;5093419;28;20040;-75
2021/12/10 03:17:48;;;;;;;11.45;5.97;;;0.30;99.90;;;;;;5093409;28;20040;-74
2021/12/10 03:20:17;;;;;;;7.95;6.30;;;0.30;99.90;;;;;;5093220;28;20520;-75
2021/12/10 03:22:44;;;;;;;10.13;6.80;;;0.30;99.90;;;;;;5075068;28;20445;-74
2021/12/10 03:25:12;;;;;;;30.02;7.45;;;0.30;99.90;;;;;;5092815;28;20449;-75
2021/12/10 03:27:38;;;;;;;13.00;7.50;;;0.30;99.90;;;;;;5093236;28;20093;-75
2021/12/10 03:30:09;;;;;;;18.15;8.07;;;0.30;99.90;;;;;;5074696;28;20077;-74
2021/12/10 03:32:35;;;;;;;;;;;0.30;99.90;;;;;;5093319;28;20511;-75
2021/12/10 03:35:09;;;;;;;22.60;8.57;;;0.30;99.90;;;;;;5093173;28;19953;-75
2021/12/10 03:37:38;;;;;;;16.08;8.57;;;0.30;99.90;;;;;;5093033;28;20082;-75
2021/12/10 03:40:06;;;;;;;17.00;9.30;;;0.30;99.90;;;;;;5093097;28;20117;-75
2021/12/10 03:42:33;;;;;;;13.13;9.25;;;0.30;99.90;;;;;;5093076;28;20169;-74
2021/12/10 03:44:59;;;;;;;12.18;8.65;;;0.30;99.90;;;;;;5092921;28;20112;-75
2021/12/10 03:47:25;;;;;;;11.30;8.88;;;0.20;99.90;;;;;;5092853;28;20040;-74
2021/12/10 03:49:51;;;;;;;14.50;8.88;;;0.30;99.90;;;;;;5092910;28;20039;-74
2021/12/10 03:52:17;;;;;;;10.20;8.38;;;0.20;99.90;;;;;;5092913;28;20067;-74
2021/12/10 03:54:43;;;;;;;9.10;7.13;;;0.20;99.90;;;;;;5092864;28;20080;-74
2021/12/10 03:57:10;;;;;;;8.40;6.45;;;0.20;99.90;;;;;;5074715;28;20040;-74
2021/12/10 03:59:37;;;;;;;10.88;8.35;;;0.30;99.90;;;;;;5074261;28;20043;-74
2021/12/10 04:02:07;;;;;;;8.40;6.80;;;0.30;99.90;;;;;;5092476;28;20040;-74
2021/12/10 04:04:39;;;;;;;11.63;8.30;;;0.30;99.90;;;;;;5092542;28;20463;-71
2021/12/10 04:07:10;;;;;;;8.25;6.68;;;0.30;99.90;;;;;;5074512;28;20725;-71
2021/12/10 04:09:36;;;;;;;9.85;7.57;;;0.30;99.90;;;;;;5078523;28;20119;-72
2021/12/10 04:12:04;;;;;;;11.38;8.15;;;0.30;99.90;;;;;;5096652;28;20123;-71
2021/12/10 04:14:30;;;;;;;10.02;7.57;;;0.30;99.90;;;;;;5078458;28;20501;-71
2021/12/10 04:16:57;;;;;;;8.20;6.80;;;0.30;99.90;;;;;;5078166;28;20040;-73
2021/12/10 04:19:28;;;;;;;9.63;7.60;;;0.30;99.90;;;;;;5096468;28;20387;-72
2021/12/10 04:21:57;;;;;;;10.32;6.93;;;0.30;99.90;;;;;;5096318;28;20441;-72
2021/12/10 04:24:25;;;;;;;9.13;7.53;;;0.30;99.90;;;;;;5096566;28;20503;-71
2021/12/10 04:26:52;;;;;;;8.68;6.75;;;0.30;99.90;;;;;;5096386;28;20521;-71
2021/12/10 04:29:22;;;;;;;8.82;7.15;;;0.30;99.90;;;;;;5078088;28;20035;-76
2021/12/10 04:31:49;;;;;;;9.10;7.07;;;0.30;99.90;;;;;;5095798;28;20596;-72
2021/12/10 04:34:16;;;;;;;31.83;9.80;;;0.40;99.90;;;;;;5095825;28;20031;-71
2021/12/10 04:36:42;;;;;;;17.65;7.88;;;0.40;99.90;;;;;;5077528;28;20036;-71
2021/12/10 04:39:09;;;;;;;19.40;8.77;;;0.30;99.90;;;;;;5096070;28;20075;-72
2021/12/10 04:41:35;;;;;;;9.63;7.40;;;0.30;99.90;;;;;;5095736;28;20431;-70
2021/12/10 04:44:01;;;;;;;7.93;6.68;;;0.40;99.90;;;;;;5095234;28;20077;-71
2021/12/10 04:46:27;;;;;;;13.48;7.28;;;0.40;99.90;;;;;;5077575;28;20051;-71
2021/12/10 04:49:00;;;;;;;11.57;7.50;;;0.40;99.90;;;;;;5077648;28;20514;-71
2021/12/10 04:51:30;;;;;;;12.85;8.02;;;0.50;99.90;;;;;;5077685;28;20040;-71
2021/12/10 04:53:57;;;;;;;8.50;6.72;;;0.40;99.90;;;;;;5095895;28;20074;-71
2021/12/10 04:56:24;;;;;;;6.28;5.63;;;0.40;99.90;;;;;;5077661;28;20118;-73
2021/12/10 04:58:51;;;;;;;5.60;5.07;;;0.40;99.90;;;;;;5077447;28;20653;-72
2021/12/10 05:01:17;;;;;;;6.60;4.80;;;0.40;99.90;;;;;;5077500;28;20106;-72
2021/12/10 05:03:43;;;;;;;6.03;5.43;;;0.40;99.90;;;;;;5095635;28;20499;-71
2021/12/10 05:06:10;;;;;;;6.50;5.80;;;0.40;99.90;;;;;;5094757;28;20051;-71
2021/12/10 05:08:37;;;;;;;5.00;4.50;;;0.50;99.90;;;;;;5095332;28;20040;-71
2021/12/10 05:11:05;;;;;;;6.18;4.88;;;0.60;99.90;;;;;;5095519;28;20093;-72
2021/12/10 05:13:31;;;;;;;6.13;5.53;;;0.60;99.90;;;;;;5095763;28;20043;-71
2021/12/10 05:15:58;;;;;;;6.78;6.05;;;0.60;99.90;;;;;;5077291;28;20032;-71
2021/12/10 05:18:35;;;;;;;144.77;15.20;;;0.70;99.90;;;;;;5095040;28;20042;-71
2021/12/10 05:21:03;;;;;;;246.98;22.10;;;0.70;99.90;;;;;;5095305;28;20036;-72
2021/12/10 05:23:29;;;;;;;6.40;5.35;;;0.70;99.90;;;;;;5095048;28;20125;-71
2021/12/10 05:25:55;;;;;;;6.45;5.72;;;0.60;99.90;;;;;;5095037;28;20083;-77
2021/12/10 05:28:21;;;;;;;10.02;6.22;;;0.60;99.90;;;;;;5095352;28;20601;-71
2021/12/10 05:30:49;;;;;;;4.43;3.95;;;0.70;99.90;;;;;;5094907;28;20032;-72
2021/12/10 05:33:17;;;;;;;5.50;5.00;;;0.70;99.90;;;;;;5095186;28;20039;-71
2021/12/10 05:35:46;;;;;;;4.75;4.35;;;0.70;99.90;;;;;;5095106;28;20048;-71
2021/12/10 05:38:13;;;;;;;4.45;3.25;;;0.80;99.90;;;;;;5094939;28;20105;-71
2021/12/10 05:40:39;;;;;;;3.53;3.22;;;0.70;99.90;;;;;;5077196;28;20109;-72
2021/12/10 05:43:04;;;;;;;3.65;3.08;;;0.70;99.90;;;;;;5095016;28;20613;-71
2021/12/10 05:45:31;;;;;;;3.40;3.08;;;0.70;99.90;;;;;;5094652;28;20047;-72
2021/12/10 05:47:57;;;;;;;4.05;3.35;;;0.80;99.90;;;;;;5076355;28;20032;-72
2021/12/10 05:50:25;;;;;;;6.93;4.13;;;0.60;99.90;;;;;;5094562;28;20115;-73
2021/12/10 05:52:51;;;;;;;18.48;4.97;;;0.60;99.90;;;;;;5094390;28;20040;-73
2021/12/10 05:55:18;;;;;;;12.25;4.47;;;0.50;99.90;;;;;;5094613;28;20039;-71
2021/12/10 05:57:44;;;;;;;4.55;4.15;;;0.70;99.90;;;;;;5094542;28;20114;-71
2021/12/10 06:00:17;;;;;;;3.97;3.67;;;0.70;99.90;;;;;;5094515;28;20043;-72
2021/12/10 06:02:44;;;;;;;4.22;3.83;;;0.70;99.90;;;;;;5076271;28;20096;-71
2021/12/10 06:05:10;;;;;;;6.22;5.30;;;0.70;99.90;;;;;;5094396;28;20430;-72
2021/12/10 06:07:38;;;;;;;5.55;4.90;;;0.80;99.90;;;;;;5076210;28;20032;-71
2021/12/10 06:10:06;;;;;;;4.88;4.47;;;0.80;99.90;;;;;;5076206;28;20035;-72
2021/12/10 06:12:32;;;;;;;5.88;4.00;;;0.70;99.90;;;;;;5075675;28;20495;-72
2021/12/10 06:14:58;;;;;;;3.67;2.70;;;0.80;99.90;;;;;;5075983;28;20063;-72
2021/12/10 06:17:24;;;;;;;4.30;3.80;;;0.80;99.90;;;;;;5093549;28;20156;-74
2021/12/10 06:19:50;;;;;;;4.65;3.33;;;0.80;99.90;;;;;;5075338;28;20524;-70
2021/12/10 06:22:16;;;;;;;4.45;2.97;;;1.00;99.90;;;;;;5093886;28;20489;-71
2021/12/10 06:24:41;;;;;;;5.55;3.20;;;1.30;99.90;;;;;;5075950;28;20035;-75
2021/12/10 06:27:07;;;;;;;3.00;2.72;;;1.40;99.90;;;;;;5094110;28;20078;-71
2021/12/10 06:29:35;;;;;;;3.20;2.33;;;1.30;99.90;;;;;;5075894;28;20097;-71
2021/12/10 06:32:02;;;;;;;5.15;2.75;;;1.50;99.90;;;;;;5093213;28;20040;-70
2021/12/10 06:34:28;;;;;;;4.35;3.00;;;;;;;;;;5093713;28;20040;-71
2021/12/10 06:36:54;;;;;;;4.15;2.45;;;1.60;99.90;;;;;;5077674;28;20583;-70
2021/12/10 06:39:20;;;;;;;4.20;2.08;;;1.70;99.90;;;;;;5093970;28;20031;-70
2021/12/10 06:41:54;;;;;;;21.63;10.13;;;1.60;99.90;;;;;;5093902;28;20036;-72
2021/12/10 06:44:20;;;;;;;27.02;13.32;;;1.40;99.90;;;;;;5093738;28;20040;-70
2021/12/10 06:46:47;;;;;;;13.55;7.13;;;2.00;99.90;;;;;;5102713;27;20054;-70
2021/12/10 06:49:18;;;;;;;3.75;1.85;;;2.10;99.90;;;;;;5074683;28;20039;-72
2021/12/10 06:51:45;;;;;;;3.05;1.88;;;2.00;99.90;;;;;;5055322;28;20047;-71
2021/12/10 06:54:11;;;;;;;5.20;2.58;;;2.00;99.90;;;;;;5072035;28;20586;-70
2021/12/10 06:56:37;;;;;;;8.00;4.97;;;2.10;99.90;;;;;;5073053;28;20127;-70
2021/12/10 06:59:09;;;;;;;20.35;18.10;;;2.10;99.90;;;;;;5055194;28;20037;-70
2021/12/10 07:01:38;;;;;;;21.67;13.52;;;2.00;99.90;;;;;;5072526;28;20052;-71
2021/12/10 07:04:09;;;;;;;10.70;7.57;;;1.80;99.90;;;;;;5072577;28;20403;-72
2021/12/10 07:06:37;;;;;;;13.20;8.27;;;1.80;99.90;;;;;;5072980;28;20094;-70
2021/12/10 07:09:07;;;;;;;35.55;19.60;;;1.80;99.90;;;;;;5071886;28;20040;-75
2021/12/10 07:11:34;;;;;;;28.85;15.95;;;1.60;99.90;;;;;;5065791;28;20637;-70
2021/12/10 07:13:59;;;;;;;8.05;4.32;;;1.60;99.90;;;;;;5074184;28;20491;-70
2021/12/10 07:16:27;;;;;;;7.15;4.53;;;1.90;99.90;;;;;;5093408;28;20048;-70
2021/12/10 07:18:55;;;;;;;8.43;5.10;;;1.80;99.90;;;;;;5075401;28;20032;-70
2021/12/10 07:21:21;;;;;;;5.63;3.50;;;1.80;99.90;;;;;;5074959;28;20039;-70
2021/12/10 07:23:47;;;;;;;5.63;3.20;;;2.30;99.90;;;;;;5092985;28;20028;-70
2021/12/10 07:26:14;;;;;;;6.35;3.80;;;2.30;99.90;;;;;;5092817;28;20055;-82
2021/12/10 07:28:40;;;;;;;8.52;4.10;;;2.30;99.90;;;;;;5074864;28;20043;-82
2021/12/10 07:31:08;;;;;;;10.40;3.60;;;2.30;99.90;;;;;;5087093;28;20035;-71
2021/12/10 07:33:34;;;;;;;6.22;3.20;;;2.40;99.90;;;;;;5078407;28;20032;-70
2021/12/10 07:36:01;;;;;;;16.65;9.32;;;2.50;99.90;;;;;;5054424;28;20407;-77
2021/12/10 07:38:27;;;;;;;9.88;4.72;;;2.30;99.90;;;;;;5054587;28;20064;-76
2021/12/10 07:40:54;;;;;;;19.83;9.80;;;;;;;;;;5075397;28;20043;-70
2021/12/10 07:43:20;;;;;;;9.38;4.32;;;2.70;99.90;;;;;;5084159;28;20478;-80
2021/12/10 07:45:48;;;;;;;214.77;125.43;;;3.10;99.90;;;;;;5076837;28;20074;-69
2021/12/10 07:48:18;;;;;;;116.35;74.05;;;3.40;99.90;;;;;;5092422;28;20090;-74
2021/12/10 07:50:53;;;;;;;13.85;4.68;;;3.10;99.90;;;;;;5059179;28;20044;-69
2021/12/10 07:53:20;;;;;;;52.58;39.08;;;3.40;99.90;;;;;;5076977;28;20033;-69
2021/12/10 07:55:46;;;;;;;9.60;3.10;;;3.30;99.90;;;;;;5058539;28;20131;-70
2021/12/10 07:58:12;;;;;;;12.45;3.20;;;3.60;99.90;;;;;;5076433;28;20067;-70
2021/12/10 08:00:40;;;;;;;10.88;4.07;;;3.70;99.90;;;;;;5076856;28;20047;-72
2021/12/10 08:03:07;;;;;;;11.55;3.33;;;3.60;99.90;;;;;;5087898;28;20036;-76
2021/12/10 08:05:33;;;;;;;14.50;3.22;;;3.70;99.90;;;;;;5078466;28;20704;-69
2021/12/10 08:08:00;;;;;;;10.20;3.13;;;3.70;99.90;;;;;;5086400;28;20036;-70
2021/12/10 08:10:27;;;;;;;11.00;3.15;;;3.70;99.90;;;;;;5082238;28;20044;-78
2021/12/10 08:12:54;;;;;;;14.23;3.20;;;3.70;99.90;;;;;;5088576;28;20038;-73
2021/12/10 08:15:19;;;;;;;17.15;4.13;;;3.70;99.90;;;;;;5077992;28;20044;-84
2021/12/10 08:17:46;;;;;;;10.45;2.72;;;;;;;;;;5080014;28;20043;-77
2021/12/10 08:20:14;;;;;;;19.02;3.22;;;;;;;;;;5086639;28;20048;-68
2021/12/10 08:22:41;;;;;;;11.77;2.90;;;;;;;;;;5090855;28;20058;-68
2021/12/10 08:25:07;;;;;;;10.35;2.55;;;;;;;;;;5095635;28;20513;-68
2021/12/10 08:27:33;;;;;;;13.35;2.40;;;4.30;99.90;;;;;;5095896;28;20055;-68
2021/12/10 08:30:03;;;;;;;11.20;3.30;;;4.30;99.90;;;;;;5078249;28;20044;-70
2021/12/10 08:32:31;;;;;;;12.90;2.50;;;4.30;99.90;;;;;;5095017;28;20046;-68
2021/12/10 08:34:58;;;;;;;12.25;3.28;;;4.40;99.90;;;;;;5093811;28;20842;-69
2021/12/10 08:37:24;;;;;;;13.48;2.40;;;4.30;99.90;;;;;;5093852;28;20036;-69
2021/12/10 08:39:50;;;;;;;10.23;2.30;;;4.30;99.90;;;;;;5094298;28;20391;-70
2021/12/10 08:42:17;;;;;;;16.55;2.97;;;4.40;99.90;;;;;;5093376;28;20032;-69
2021/12/10 08:44:44;;;;;;;10.15;1.92;;;4.60;99.90;;;;;;5093548;28;20521;-69
2021/12/10 08:47:12;;;;;;;11.55;2.78;;;4.40;99.90;;;;;;5093271;28;20514;-71
2021/12/10 08:49:39;;;;;;;9.93;2.05;;;4.50;99.90;;;;;;5093411;28;20123;-71
2021/12/10 08:52:08;;;;;;;11.50;1.90;;;4.50;99.90;;;;;;5093439;28;20050;-71
2021/12/10 08:54:35;;;;;;;9.60;2.55;;;4.40;99.90;;;;;;5093296;28;20491;-70
2021/12/10 08:57:02;;;;;;;6.90;1.63;;;4.20;99.90;;;;;;5110315;28;20038;-70
2021/12/10 08:59:28;;;;;;;8.95;1.52;;;4.20;99.90;;;;;;5109378;28;20131;-70
2021/12/10 09:02:00;;;;;;;10.23;1.92;;;4.40;99.90;;;;;;5093272;28;20151;-78
2021/12/10 09:04:28;;;;;;;7.00;2.00;;;4.40;99.90;;;;;;5109001;28;20075;-70
2021/12/10 09:06:59;;;;;;;9.13;1.90;;;4.40;99.90;;;;;;5075134;28;20078;-74
2021/12/10 09:09:28;;;;;;;14.32;2.67;;;;;;;;;;5075348;28;20044;-72
2021/12/10 09:11:56;;;;;;;15.10;2.55;;;4.70;99.90;;;;;;5092927;28;20072;-73
2021/12/10 09:14:27;;;;;;;15.80;2.55;;;4.70;99.90;;;;;;5108750;28;20032;-76
2021/12/10 09:16:55;;;;;;;11.23;2.60;;;4.50;99.90;;;;;;5092987;28;20040;-70
2021/12/10 09:19:21;;;;;;;11.77;2.05;;;4.70;99.90;;;;;;5095093;28;20047;-70
2021/12/10 09:21:49;;;;;;;10.95;2.75;;;4.70;99.90;;;;;;5076496;28;20024;-70
2021/12/10 09:24:18;;;;;;;12.55;2.30;;;4.70;99.90;;;;;;5074281;28;20031;-71
2021/12/10 09:26:45;;;;;;;12.63;2.60;;;;;;;;;;5092442;28;20052;-70
2021/12/10 09:29:13;;;;;;;14.00;2.97;;;;;;;;;;5092304;28;20528;-70
2021/12/10 09:31:42;;;;;;;14.05;2.55;;;;;;;;;;5094101;28;20047;-70
2021/12/10 09:34:08;;;;;;;8.25;2.10;;;4.70;99.90;;;;;;5093906;28;20071;-70
2021/12/10 09:36:34;;;;;;;21.67;3.47;;;4.70;99.90;;;;;;5092926;28;20043;-70
2021/12/10 09:39:01;;;;;;;6.80;1.98;;;4.70;99.90;;;;;;5092595;28;20073;-70
2021/12/10 09:41:28;;;;;;;13.02;2.50;;;4.70;99.90;;;;;;5092571;28;20040;-71
2021/12/10 09:43:54;;;;;;;10.75;2.25;;;4.80;99.90;;;;;;5092434;28;20078;-73
2021/12/10 09:46:20;;;;;;;10.45;1.88;;;4.80;99.90;;;;;;5092507;28;20415;-72
2021/12/10 09:48:47;;;;;;;11.18;3.08;;;4.80;99.90;;;;;;5092604;28;20044;-72
2021/12/10 09:51:27;;;;;;;11.27;2.00;;;4.80;99.90;;;;;;5092291;28;20609;-72
2021/12/10 09:53:57;;;;;;;7.60;2.03;;;4.80;99.90;;;;;;5074366;28;20031;-73
2021/12/10 09:56:25;;;;;;;10.88;2.75;;;4.90;99.90;;;;;;5074280;28;20066;-71
2021/12/10 09:58:53;;;;;;;8.73;2.00;;;4.80;99.90;;;;;;5074283;28;20036;-71
2021/12/10 10:01:26;;;;;;;11.18;1.95;;;4.80;99.90;;;;;;5092785;28;20047;-71
2021/12/10 10:04:00;;;;;;;6.97;1.88;;;4.80;99.90;;;;;;5069147;28;20071;-70
2021/12/10 10:06:27;;;;;;;8.38;2.35;;;4.70;99.90;;;;;;5082569;28;20056;-71
2021/12/10 10:08:53;;;;;;;8.55;1.75;;;4.60;99.90;;;;;;5092027;28;20035;-70
2021/12/10 10:11:24;;;;;;;7.43;1.30;;;4.50;99.90;;;;;;5092406;28;20391;-73
2021/12/10 10:13:51;;;;;;;7.60;1.70;;;4.50;99.90;;;;;;5092419;28;20043;-70
2021/12/10 10:16:20;;;;;;;5.90;1.60;;;4.40;99.90;;;;;;5091567;28;20062;-70
2021/12/10 10:18:48;;;;;;;6.40;1.48;;;4.40;99.90;;;;;;5090572;28;20040;-70
2021/12/10 10:21:33;;;;;;;4.10;1.30;;;4.40;99.90;;;;;;5091696;28;20050;-70
2021/12/10 10:23:59;;;;;;;6.35;1.40;;;4.40;99.90;;;;;;5090399;28;20093;-71
2021/12/10 10:26:31;;;;;;;10.18;2.33;;;4.40;99.90;;;;;;5091858;28;20048;-72
2021/12/10 10:29:05;;;;;;;10.10;2.85;;;4.40;99.90;;;;;;5091654;28;20047;-70
2021/12/10 10:31:31;;;;;;;11.43;5.18;;;4.40;99.90;;;;;;5091429;28;20574;-72
2021/12/10 10:33:59;;;;;;;20.65;13.07;;;4.40;99.90;;;;;;5093760;28;20117;-72
2021/12/10 10:36:28;;;;;;;8.15;2.13;;;4.30;99.90;;;;;;5091386;28;20526;-73
2021/12/10 10:39:09;;;;;;;12.30;2.42;;;4.40;99.90;;;;;;5089765;28;20403;-76
2021/12/10 10:41:37;;;;;;;17.45;3.97;;;4.50;99.90;;;;;;5092491;28;20055;-72
2021/12/10 10:44:04;;;;;;;12.82;2.85;;;4.50;99.90;;;;;;5091905;28;20514;-72
2021/12/10 10:46:31;;;;;;;8.07;1.73;;;4.60;99.90;;;;;;5091540;28;20491;-72
2021/12/10 10:48:57;;;;;;;8.13;2.30;;;4.70;99.90;;;;;;5091388;28;20075;-73
2021/12/10 10:51:34;;;;;;;10.88;2.85;;;4.70;99.90;;;;;;5072887;28;20078;-73
2021/12/10 10:54:04;;;;;;;8.13;2.47;;;4.70;99.90;;;;;;5091066;28;20449;-70
2021/12/10 10:56:34;;;;;;;13.27;2.22;;;4.90;99.90;;;;;;5091372;28;20040;-71
2021/12/10 10:59:11;;;;;;;9.60;2.38;;;5.00;99.90;;;;;;5092720;28;20448;-70
2021/12/10 11:02:02;;;;;;;10.23;2.33;;;5.00;99.90;;;;;;5092971;28;20044;-71
2021/12/10 11:04:52;;;;;;;10.30;2.95;;;4.90;99.90;;;;;;5093217;28;20032;-71
2021/12/10 11:07:21;;;;;;;18.08;5.45;;;5.00;99.90;;;;;;5092974;28;20062;-70
2021/12/10 11:09:55;;;;;;;11.48;2.42;;;5.10;99.90;;;;;;5091201;28;20035;-71
2021/12/10 11:12:27;;;;;;;9.70;2.13;;;5.10;99.90;;;;;;5091467;28;20122;-72
2021/12/10 11:14:55;;;;;;;10.50;2.17;;;5.20;99.90;;;;;;5090953;28;20691;-71
2021/12/10 11:17:33;;;;;;;14.75;3.13;;;5.20;99.90;;;;;;5070266;28;20085;-71
2021/12/10 11:20:08;;;;;;;9.95;1.98;;;5.20;99.90;;;;;;5072691;28;20108;-70
2021/12/10 11:22:35;;;;;;;11.90;2.60;;;5.20;99.90;;;;;;5073217;28;20032;-70
2021/12/10 11:25:12;;;;;;;9.30;2.65;;;5.40;99.90;;;;;;5090657;28;20042;-71
2021/12/10 11:27:41;;;;;;;12.45;2.53;;;5.40;99.90;;;;;;5072482;28;20146;-70
2021/12/10 11:30:21;;;;;;;12.18;3.38;;;5.40;99.90;;;;;;5090474;28;20117;-71
2021/12/10 11:32:49;;;;;;;18.50;2.78;;;5.80;99.90;;;;;;5072699;28;20035;-70
2021/12/10 11:35:36;;;;;;;18.02;2.80;;;6.00;99.90;;;;;;5090920;28;20498;-71
2021/12/10 11:38:28;;;;;;;9.88;2.42;;;6.10;99.90;;;;;;5073225;28;20495;-70
2021/12/10 11:41:05;;;;;;;9.05;2.70;;;6.10;99.90;;;;;;5072597;28;20134;-73
2021/12/10 11:44:06;;;;;;;15.23;3.33;;;;;;;;;;5072645;28;20042;-70
2021/12/10 11:47:02;;;;;;;10.63;3.20;;;6.30;99.90;;;;;;5072552;28;20043;-70
2021/12/10 11:49:33;;;;;;;15.98;6.32;;;6.40;99.90;;;;;;5091897;28;20059;-70
2021/12/10 11:52:15;;;;;;;16.05;7.82;;;5.90;99.90;;;;;;5090636;28;20071;-71
2021/12/10 11:54:42;;;;;;;18.90;7.95;;;5.70;99.90;;;;;;5091939;28;20024;-70
2021/12/10 11:57:13;;;;;;;24.48;12.68;;;5.50;99.90;;;;;;5091419;28;20036;-72
2021/12/10 11:59:40;;;;;;;13.70;3.60;;;5.30;99.90;;;;;;5090668;28;20042;-74
2021/12/10 12:02:15;;;;;;;15.35;2.88;;;5.30;99.90;;;;;;5090253;28;20074;-71
2021/12/10 12:04:46;;;;;;;10.52;2.03;;;5.50;99.90;;;;;;5071891;28;20094;-71
2021/12/10 12:07:35;;;;;;;12.77;3.20;;;5.70;99.90;;;;;;5090711;28;20130;-72
2021/12/10 12:10:06;;;;;;;19.75;8.15;;;5.60;99.90;;;;;;5072219;28;20128;-70
2021/12/10 12:12:46;;;;;;;12.20;5.13;;;5.60;99.90;;;;;;5090927;28;20040;-71
2021/12/10 12:15:30;;;;;;;16.77;6.22;;;5.60;99.90;;;;;;5091351;28;20044;-71
2021/12/10 12:18:04;;;;;;;13.95;3.00;;;5.60;99.90;;;;;;5092187;28;20032;-71
2021/12/10 12:20:59;;;;;;;15.00;5.13;;;5.50;99.90;;;;;;5072227;28;20036;-75
2021/12/10 12:26:21;;;;;;;6.68;1.52;;;4.90;99.90;;;;;;5092252;28;20529;-70
2021/12/10 12:28:53;;;;;;;14.90;4.15;;;5.00;99.90;;;;;;5085783;28;20434;-70
2021/12/10 12:31:21;;;;;;;14.32;6.05;;;5.40;99.90;;;;;;5073971;28;20048;-70
2021/12/10 12:34:17;;;;;;;9.10;1.85;;;5.60;99.90;;;;;;5055843;28;20127;-71
2021/12/10 12:37:04;;;;;;;14.52;4.50;;;5.60;99.90;;;;;;5073540;28;20507;-70
2021/12/10 12:39:34;;;;;;;10.98;2.63;;;5.90;99.90;;;;;;5075336;28;20526;-69
2021/12/10 12:42:04;;;;;;;10.83;4.97;;;4.50;99.90;;;;;;5093570;28;20567;-69
2021/12/10 12:44:39;;;;;;;8.88;2.00;;;4.60;99.90;;;;;;5094037;28;20111;-70
2021/12/10 12:47:21;;;;;;;6.20;1.90;;;4.70;99.90;;;;;;5093496;28;20055;-71
2021/12/10 12:49:47;;;;;;;15.70;4.88;;;4.90;99.90;;;;;;5094115;28;20092;-70
2021/12/10 12:52:17;;;;;;;18.45;5.50;;;5.10;99.90;;;;;;5096018;28;20036;-70
2021/12/10 12:55:11;;;;;;;14.82;4.00;;;5.30;99.90;;;;;;5095215;28;20493;-75
2021/12/10 12:57:50;;;;;;;19.77;8.20;;;5.50;99.90;;;;;;5075431;28;20073;-70
2021/12/10 13:00:35;;;;;;;11.40;2.20;;;5.50;99.90;;;;;;5093185;28;20081;-72
2021/12/10 13:03:11;;;;;;;18.33;7.13;;;5.30;99.90;;;;;;5075054;28;20388;-71
2021/12/10 13:06:00;;;;;;;12.32;4.53;;;5.20;99.90;;;;;;5093537;28;20035;-71
2021/12/10 13:08:32;;;;;;;6.68;1.80;;;5.10;99.90;;;;;;5093429;28;20047;-71
2021/12/10 13:11:19;;;;;;;17.25;6.05;;;5.40;99.90;;;;;;5074882;28;20079;-70
2021/12/10 13:14:15;;;;;;;13.88;2.58;;;5.60;99.90;;;;;;5093523;28;20051;-69
2021/12/10 13:16:48;;;;;;;6.63;1.80;;;5.00;99.90;;;;;;5093069;28;20131;-70
2021/12/10 13:19:17;;;;;;;6.50;2.30;;;;;;;;;;5074972;28;20036;-70